Time;durP1;ratioP1;P1;durP2;ratioP2;P2;SDS_P1;SDS_P2;PMS_P1;PMS_P2;Temp;Humidity;BMP_temperature;BMP_pressure;BME280_temperature;BME280_humidity;BME280_pressure;Samples;Min_cycle;Max_cycle;Signal;HPM_P1;HPM_P2
2023/05/03 00:01:42;;;;;;;5.10;1.90;;;;;;;4.48;100.00;102129.79;105663;1259;75451;-50
2023/05/03 00:04:10;;;;;;;9.70;1.80;;;;;;;4.47;100.00;102128.54;105639;1257;63815;-50
2023/05/03 00:06:37;;;;;;;4.10;1.80;;;;;;;4.47;100.00;102126.33;105665;1259;61704;-50
2023/05/03 00:09:05;;;;;;;3.20;1.90;;;;;;;4.46;100.00;102130.05;105709;1259;74456;-50
2023/05/03 00:11:32;;;;;;;9.10;2.10;;;;;;;4.44;100.00;102129.83;105711;1254;65630;-50
2023/05/03 00:14:00;;;;;;;4.60;1.70;;;;;;;4.42;100.00;102131.64;105662;1259;74387;-50
2023/05/03 00:16:27;;;;;;;9.50;2.40;;;;;;;4.41;100.00;102133.14;105604;1255;63760;-50
2023/05/03 00:18:54;;;;;;;5.70;1.80;;;;;;;4.40;100.00;102136.33;105718;1260;61876;-51
2023/05/03 00:21:21;;;;;;;7.10;2.50;;;;;;;4.37;100.00;102132.80;105665;1260;74863;-50
2023/05/03 00:23:49;;;;;;;4.30;2.10;;;;;;;4.35;100.00;102133.95;105650;1259;66863;-49
2023/05/03 00:26:16;;;;;;;6.70;2.50;;;;;;;4.38;100.00;102138.48;105728;1257;74345;-49
2023/05/03 00:28:43;;;;;;;12.00;2.30;;;;;;;4.41;100.00;102136.54;105647;1256;64197;-49
2023/05/03 00:31:10;;;;;;;3.10;1.90;;;;;;;4.44;100.00;102134.26;105653;1261;61794;-49
2023/05/03 00:33:37;;;;;;;10.20;2.50;;;;;;;4.45;100.00;102128.31;105687;1254;74504;-49
2023/05/03 00:36:14;;;;;;;5.70;2.00;;;;;;;4.48;100.00;102129.44;105606;1260;67177;-49
2023/05/03 00:38:41;;;;;;;3.20;2.40;;;;;;;4.50;100.00;102126.59;105601;1254;74865;-49
2023/05/03 00:41:09;;;;;;;6.70;1.80;;;;;;;4.51;100.00;102118.41;105623;1254;64618;-49
2023/05/03 00:43:36;;;;;;;4.10;2.30;;;;;;;4.51;100.00;102116.02;105618;1254;61053;-49
2023/05/03 00:46:05;;;;;;;5.00;2.30;;;;;;;4.52;100.00;102103.39;105637;1259;74275;-49
2023/05/03 00:48:44;;;;;;;2.40;1.80;;;;;;;4.57;100.00;102098.95;105663;1254;66168;-50
2023/05/03 00:51:12;;;;;;;6.00;1.90;;;;;;;4.64;100.00;102098.48;105653;1259;75201;-55
2023/05/03 00:53:40;;;;;;;1.60;1.50;;;;;;;4.65;100.00;102093.55;105426;1257;63484;-50
2023/05/03 00:56:07;;;;;;;1.60;1.50;;;;;;;4.68;100.00;102084.06;105359;1259;61451;-52
2023/05/03 00:58:38;;;;;;;7.00;1.70;;;;;;;4.74;100.00;102084.77;105637;1259;73926;-52
2023/05/03 01:01:06;;;;;;;2.90;1.60;;;;;;;4.80;100.00;102086.51;105702;1255;66583;-50
2023/05/03 01:03:36;;;;;;;1.70;1.60;;;;;;;4.89;100.00;102090.91;105680;1254;75177;-50
2023/05/03 01:06:38;;;;;;;5.60;1.70;;;;;;;4.96;100.00;102095.21;105638;1262;64306;-50
2023/05/03 01:09:09;;;;;;;11.00;2.00;;;;;;;4.98;100.00;102099.58;105640;1254;63030;-50
2023/05/03 01:11:46;;;;;;;1.80;1.20;;;;;;;5.00;100.00;102102.02;105675;1259;73426;-50
2023/05/03 01:14:36;;;;;;;5.10;1.60;;;;;;;4.99;100.00;102107.11;105671;1254;67582;-50
2023/05/03 01:17:07;;;;;;;8.90;1.80;;;;;;;4.97;100.00;102113.57;105669;1257;74795;-50
2023/05/03 01:19:55;;;;;;;3.60;1.10;;;;;;;4.93;100.00;102120.29;105615;1257;64182;-50
2023/05/03 01:22:33;;;;;;;5.30;1.50;;;;;;;4.88;100.00;102125.27;105651;1256;62799;-50
2023/05/03 01:25:06;;;;;;;2.90;1.80;;;;;;;4.85;100.00;102127.89;105675;1259;73682;-49
2023/05/03 01:27:35;;;;;;;3.10;1.70;;;;;;;4.83;100.00;102130.39;105645;1254;65943;-50
2023/05/03 01:30:10;;;;;;;3.90;1.80;;;;;;;4.84;100.00;102129.08;105646;1254;74910;-50
2023/05/03 01:32:59;;;;;;;6.20;1.80;;;;;;;4.79;100.00;102129.91;105686;1254;64472;-49
2023/05/03 01:35:36;;;;;;;5.00;2.30;;;;;;;4.69;100.00;102132.52;105674;1260;62265;-50
2023/05/03 01:38:03;;;;;;;2.10;1.60;;;;;;;4.57;100.00;102134.68;105614;1260;74106;-49
2023/05/03 01:40:31;;;;;;;3.40;1.80;;;;;;;4.50;100.00;102136.52;105640;1254;65479;-49
2023/05/03 01:42:59;;;;;;;3.90;1.90;;;;;;;4.44;100.00;102139.92;105616;1257;75495;-49
2023/05/03 01:45:26;;;;;;;7.40;2.00;;;;;;;4.37;100.00;102138.27;105599;1256;64139;-49
2023/05/03 01:47:55;;;;;;;3.20;1.70;;;;;;;4.29;100.00;102144.00;105694;1255;62747;-49
2023/05/03 01:50:22;;;;;;;4.20;1.70;;;;;;;4.21;100.00;102145.45;105678;1261;74415;-49
2023/05/03 01:52:51;;;;;;;1.60;1.50;;;;;;;4.14;100.00;102145.21;105643;1254;66398;-49
2023/05/03 01:55:18;;;;;;;7.70;1.80;;;;;;;4.08;100.00;102146.02;105616;1259;75198;-49
2023/05/03 01:57:45;;;;;;;3.40;1.90;;;;;;;4.08;100.00;102143.46;105616;1260;64034;-49
2023/05/03 02:00:13;;;;;;;6.70;1.70;;;;;;;4.17;100.00;102135.08;105562;1260;61401;-49
2023/05/03 02:02:40;;;;;;;3.10;1.80;;;;;;;4.25;100.00;102129.54;105663;1259;75230;-49
2023/05/03 02:05:08;;;;;;;6.70;1.40;;;;;;;4.28;100.00;102119.21;105644;1260;66122;-50
2023/05/03 02:07:35;;;;;;;7.00;1.70;;;;;;;4.27;100.00;102116.44;105641;1257;74308;-52
2023/05/03 02:10:04;;;;;;;5.20;1.80;;;;;;;4.24;100.00;102114.79;105633;1254;62445;-52
2023/05/03 02:12:31;;;;;;;4.10;1.90;;;;;;;4.16;100.00;102117.61;105692;1254;62525;-49
2023/05/03 02:14:59;;;;;;;1.90;1.80;;;;;;;4.10;100.00;102120.28;105625;1259;75758;-50
2023/05/03 02:17:26;;;;;;;3.20;1.60;;;;;;;4.06;100.00;102118.27;105671;1260;67062;-51
2023/05/03 02:19:53;;;;;;;10.50;1.80;;;;;;;3.98;100.00;102115.95;105644;1260;75182;-52
2023/05/03 02:22:20;;;;;;;7.10;1.90;;;;;;;3.96;100.00;102116.55;105645;1260;62529;-50
2023/05/03 02:24:47;;;;;;;5.60;1.90;;;;;;;3.98;100.00;102120.73;105575;1261;61606;-50
2023/05/03 02:27:15;;;;;;;2.40;1.40;;;;;;;3.97;100.00;102118.81;105658;1259;75738;-49
2023/05/03 02:29:42;;;;;;;5.40;1.50;;;;;;;3.90;100.00;102117.38;105654;1259;66362;-49
2023/05/03 02:32:09;;;;;;;4.20;1.90;;;;;;;3.84;100.00;102116.45;105645;1260;74871;-49
2023/05/03 02:34:37;;;;;;;3.60;2.30;;;;;;;3.78;100.00;102116.59;105689;1257;60825;-49
2023/05/03 02:37:06;;;;;;;5.70;2.20;;;;;;;3.74;100.00;102110.48;105665;1260;62101;-50
2023/05/03 02:39:33;;;;;;;4.80;1.60;;;;;;;3.72;100.00;102107.00;105618;1254;74397;-50
2023/05/03 02:42:01;;;;;;;4.50;2.30;;;;;;;3.74;100.00;102102.98;105635;1254;65279;-50
2023/05/03 02:44:28;;;;;;;2.70;1.70;;;;;;;3.77;100.00;102102.55;105606;1261;74114;-50
2023/05/03 02:46:58;;;;;;;2.60;1.40;;;;;;;3.84;100.00;102102.65;105684;1261;63604;-49
2023/05/03 02:49:26;;;;;;;7.10;1.90;;;;;;;3.95;100.00;102101.13;105687;1259;60785;-49
2023/05/03 02:51:53;;;;;;;2.00;1.60;;;;;;;4.00;100.00;102093.13;105648;1259;75627;-50
2023/05/03 02:54:21;;;;;;;3.70;1.90;;;;;;;4.08;100.00;102093.89;105710;1254;66194;-50
2023/05/03 02:56:48;;;;;;;7.50;1.50;;;;;;;4.16;100.00;102090.23;105599;1254;75150;-51
2023/05/03 02:59:15;;;;;;;7.70;2.00;;;;;;;4.25;100.00;102086.11;105629;1259;63770;-50
2023/05/03 03:01:42;;;;;;;12.30;2.10;;;;;;;4.34;100.00;102090.16;105685;1255;62845;-50
2023/05/03 03:04:10;;;;;;;6.50;1.80;;;;;;;4.41;100.00;102086.27;105639;1259;75615;-50
2023/05/03 03:06:38;;;;;;;9.60;2.30;;;;;;;4.45;100.00;102085.77;105603;1254;66298;-51
2023/05/03 03:09:05;;;;;;;6.60;2.40;;;;;;;4.50;100.00;102088.64;105634;1260;74031;-50
2023/05/03 03:11:34;;;;;;;6.70;2.00;;;;;;;4.59;100.00;102092.17;105644;1259;63773;-51
2023/05/03 03:14:01;;;;;;;4.60;2.10;;;;;;;4.67;100.00;102093.44;105631;1259;61445;-51
2023/05/03 03:16:29;;;;;;;2.20;1.70;;;;;;;4.74;100.00;102095.40;105629;1259;76315;-51
2023/05/03 03:18:56;;;;;;;1.80;1.30;;;;;;;4.89;100.00;102099.45;105639;1264;66324;-51
2023/05/03 03:21:23;;;;;;;4.80;1.70;;;;;;;5.05;100.00;102098.57;105625;1258;74263;-51
2023/05/03 03:23:50;;;;;;;7.10;2.00;;;;;;;5.25;100.00;102094.71;105646;1255;62842;-51
2023/05/03 03:26:17;;;;;;;2.40;1.40;;;;;;;5.43;100.00;102096.44;105693;1254;62333;-52
2023/05/03 03:28:45;;;;;;;5.40;1.90;;;;;;;5.54;100.00;102097.10;105659;1259;76494;-50
2023/05/03 03:31:12;;;;;;;3.30;1.60;;;;;;;5.65;100.00;102097.59;105663;1260;66131;-51
2023/05/03 03:33:40;;;;;;;7.40;1.70;;;;;;;5.76;100.00;102093.94;105613;1260;75481;-50
2023/05/03 03:36:10;;;;;;;6.90;1.90;;;;;;;5.85;100.00;102094.01;105620;1260;60934;-50
2023/05/03 03:38:39;;;;;;;7.30;2.10;;;;;;;5.97;100.00;102097.61;105648;1260;63253;-52
2023/05/03 03:41:07;;;;;;;2.50;2.00;;;;;;;6.12;100.00;102105.38;105626;1256;76205;-51
2023/05/03 03:43:34;;;;;;;1.70;1.50;;;;;;;6.28;100.00;102107.69;105607;1260;66127;-51
2023/05/03 03:46:03;;;;;;;5.50;1.80;;;;;;;6.48;100.00;102115.04;105686;1260;73774;-52
2023/05/03 03:48:30;;;;;;;6.60;2.00;;;;;;;6.69;100.00;102126.20;105660;1256;63116;-51
2023/05/03 03:50:58;;;;;;;2.30;1.90;;;;;;;6.92;100.00;102139.43;105645;1259;63067;-50
2023/05/03 03:53:26;;;;;;;5.00;1.80;;;;;;;7.18;100.00;102152.90;105626;1261;76686;-51
2023/05/03 03:55:53;;;;;;;4.50;2.60;;;;;;;7.46;100.00;102177.59;105722;1254;66365;-52
2023/05/03 03:58:22;;;;;;;10.70;2.40;;;;;;;7.75;100.00;102203.95;105621;1260;74608;-52
2023/05/03 04:00:50;;;;;;;5.50;2.20;;;;;;;8.03;100.00;102236.70;105197;1262;62032;-52
2023/05/03 04:03:18;;;;;;;4.60;2.00;;;;;;;8.30;100.00;102256.15;105520;1260;62129;-53
2023/05/03 04:05:45;;;;;;;3.80;2.20;;;;;;;8.55;100.00;102240.14;105610;1260;75320;-53
2023/05/03 04:08:13;;;;;;;2.30;2.10;;;;;;;8.77;100.00;102126.56;105676;1255;66867;-53
2023/05/03 04:10:40;;;;;;;7.80;3.10;;;;;;;8.96;100.00;101913.70;105610;1257;73527;-50
2023/05/03 04:13:08;;;;;;;6.90;2.40;;;;;;;9.12;100.00;101630.56;105595;1254;61075;-51
2023/05/03 04:15:35;;;;;;;5.20;2.30;;;;;;;9.27;100.00;101439.46;105607;1260;62513;-51
2023/05/03 04:18:02;;;;;;;7.90;2.00;;;;;;;9.35;100.00;101405.73;105670;1260;76538;-51
2023/05/03 04:20:31;;;;;;;8.20;2.30;;;;;;;9.46;100.00;101454.84;105664;1259;67109;-51
2023/05/03 04:22:59;;;;;;;12.40;2.10;;;;;;;9.62;100.00;101495.89;105612;1260;75160;-51
2023/05/03 04:25:30;;;;;;;11.30;2.20;;;;;;;9.84;100.00;101537.14;105645;1257;61222;-52
2023/05/03 04:28:03;;;;;;;6.40;2.00;;;;;;;10.12;100.00;101564.77;105628;1262;61629;-51
2023/05/03 04:30:30;;;;;;;12.70;2.30;;;;;;;10.41;100.00;101605.00;105666;1259;75723;-52
2023/05/03 04:33:00;;;;;;;10.40;2.60;;;;;;;10.68;100.00;101655.60;105675;1260;66541;-51
2023/05/03 04:35:28;;;;;;;4.60;2.50;;;;;;;10.96;100.00;101696.01;105674;1262;74105;-51
2023/05/03 04:37:56;;;;;;;6.40;2.30;;;;;;;11.23;100.00;101723.46;105612;1254;61850;-52
2023/05/03 04:40:24;;;;;;;8.30;2.20;;;;;;;11.50;100.00;101744.69;105689;1262;62103;-52
2023/05/03 04:42:59;;;;;;;6.00;2.20;;;;;;;11.74;100.00;101768.49;105627;1269;76161;-51
2023/05/03 04:45:26;;;;;;;6.20;2.10;;;;;;;11.95;95.35;101762.23;105676;1260;66890;-52
2023/05/03 04:47:54;;;;;;;9.60;2.30;;;;;;;12.12;86.97;101779.14;105677;1260;75506;-53
2023/05/03 04:50:21;;;;;;;6.50;2.20;;;;;;;12.31;85.01;101792.04;105597;1260;62118;-50
2023/05/03 04:52:49;;;;;;;9.70;2.20;;;;;;;12.53;82.37;101791.08;105682;1260;62405;-52
2023/05/03 04:55:17;;;;;;;11.10;2.00;;;;;;;12.77;79.41;101799.25;105715;1260;75725;-53
2023/05/03 04:57:44;;;;;;;8.00;1.90;;;;;;;13.05;75.08;101774.45;105673;1259;67746;-52
2023/05/03 05:00:13;;;;;;;14.40;2.50;;;;;;;13.33;70.93;101779.95;105643;1259;75442;-52
2023/05/03 05:02:43;;;;;;;4.70;2.10;;;;;;;13.55;68.62;101782.20;105472;1257;63114;-52
2023/05/03 05:05:11;;;;;;;10.00;2.10;;;;;;;13.68;65.81;101753.98;105595;1260;61755;-52
2023/05/03 05:07:38;;;;;;;3.00;1.50;;;;;;;13.75;63.48;101733.77;105634;1254;76222;-52
2023/05/03 05:10:09;;;;;;;10.70;1.80;;;;;;;13.85;63.27;101768.52;105575;1254;66511;-53
2023/05/03 05:12:36;;;;;;;6.40;1.60;;;;;;;13.96;63.06;101769.61;105651;1260;74040;-52
2023/05/03 05:15:05;;;;;;;6.10;1.70;;;;;;;14.08;61.85;101752.65;105603;1257;62837;-52
2023/05/03 05:17:32;;;;;;;6.90;2.00;;;;;;;14.21;60.43;101722.80;105582;1254;63205;-52
2023/05/03 05:20:00;;;;;;;6.80;2.00;;;;;;;14.28;59.10;101697.88;105623;1259;75930;-52
2023/05/03 05:22:27;;;;;;;6.10;2.10;;;;;;;14.40;58.69;101706.39;105567;1262;66747;-52
2023/05/03 05:24:57;;;;;;;5.90;1.80;;;;;;;14.55;57.78;101680.30;105595;1260;74225;-51
2023/05/03 05:27:25;;;;;;;16.30;2.60;;;;;;;14.67;57.75;101708.08;105640;1254;63281;-52
2023/05/03 05:29:53;;;;;;;7.10;2.40;;;;;;;14.78;57.14;101677.70;105693;1255;61467;-52
2023/05/03 05:32:21;;;;;;;9.80;2.90;;;;;;;14.89;56.67;101683.60;105572;1260;75617;-53
2023/05/03 05:34:54;;;;;;;13.80;3.00;;;;;;;15.02;56.60;101688.60;105683;1254;67203;-53
2023/05/03 05:37:26;;;;;;;3.10;2.10;;;;;;;15.17;56.32;101687.29;105695;1261;74775;-51
2023/05/03 05:39:55;;;;;;;37.10;3.50;;;;;;;15.25;55.15;101627.84;105677;1260;61535;-53
2023/05/03 05:42:25;;;;;;;13.30;3.10;;;;;;;15.29;55.25;101670.72;105670;1254;61987;-52
2023/05/03 05:44:52;;;;;;;5.60;2.10;;;;;;;15.27;55.31;101679.79;105659;1254;75423;-53
2023/05/03 05:47:20;;;;;;;2.90;1.90;;;;;;;15.24;53.76;101574.14;105623;1269;67027;-53
2023/05/03 05:49:48;;;;;;;5.80;1.80;;;;;;;15.27;54.29;101650.25;105599;1261;73646;-53
2023/05/03 05:52:15;;;;;;;4.30;2.10;;;;;;;15.34;54.60;101678.98;105617;1257;61311;-58
2023/05/03 05:54:42;;;;;;;6.30;1.70;;;;;;;15.39;54.30;101664.98;105624;1254;62239;-55
2023/05/03 05:57:11;;;;;;;7.60;2.10;;;;;;;15.46;54.08;101665.17;105638;1260;75617;-54
2023/05/03 05:59:39;;;;;;;3.80;2.00;;;;;;;15.54;53.55;101646.92;105594;1261;67260;-55
2023/05/03 06:02:10;;;;;;;8.70;2.30;;;;;;;15.54;52.24;101540.30;105625;1260;74148;-54
2023/05/03 06:04:37;;;;;;;3.50;2.20;;;;;;;15.50;52.33;101579.30;105642;1257;63228;-52
2023/05/03 06:07:05;;;;;;;4.60;2.10;;;;;;;15.57;51.90;101549.45;105616;1260;62714;-52
2023/05/03 06:09:32;;;;;;;10.90;2.30;;;;;;;15.59;52.26;101594.98;105654;1255;75236;-53
2023/05/03 06:12:01;;;;;;;14.50;1.80;;;;;;;15.58;52.64;101650.69;105608;1255;66429;-52
2023/05/03 06:14:30;;;;;;;22.80;2.60;;;;;;;15.61;52.46;101633.21;105605;1256;75448;-53
2023/05/03 06:16:58;;;;;;;17.70;2.40;;;;;;;15.74;52.82;101669.69;105630;1256;62818;-51
2023/05/03 06:19:25;;;;;;;8.30;1.70;;;;;;;15.89;51.67;101576.24;105603;1257;62980;-52
2023/05/03 06:21:53;;;;;;;7.40;2.10;;;;;;;15.92;50.68;101480.63;105562;1255;75146;-53
2023/05/03 06:24:21;;;;;;;5.20;2.50;;;;;;;15.97;50.37;101465.71;105649;1254;65517;-53
2023/05/03 06:26:52;;;;;;;7.40;2.10;;;;;;;15.98;51.59;101622.37;105598;1260;74650;-52
2023/05/03 06:29:20;;;;;;;4.20;2.50;;;;;;;16.11;50.66;101532.05;105602;1257;61401;-53
2023/05/03 06:31:47;;;;;;;7.10;2.40;;;;;;;16.14;50.60;101550.80;105617;1260;61685;-52
2023/05/03 06:34:24;;;;;;;18.70;3.10;;;;;;;16.20;50.47;101536.20;105593;1255;75183;-53
2023/05/03 06:36:52;;;;;;;15.00;2.40;;;;;;;16.25;50.25;101520.38;105723;1254;66160;-53
2023/05/03 06:39:20;;;;;;;11.60;2.30;;;;;;;16.19;50.10;101526.82;105631;1260;75520;-52
2023/05/03 06:41:47;;;;;;;15.20;2.70;;;;;;;16.23;51.18;101653.33;105619;1261;61945;-52
2023/05/03 06:44:14;;;;;;;26.70;2.80;;;;;;;16.35;51.32;101651.64;105619;1259;61275;-54
2023/05/03 06:46:42;;;;;;;10.10;2.20;;;;;;;16.51;50.42;101550.91;105613;1259;74493;-52
2023/05/03 06:49:10;;;;;;;16.80;3.00;;;;;;;16.62;50.81;101615.62;105631;1261;66280;-51
2023/05/03 06:51:38;;;;;;;34.90;4.50;;;;;;;16.77;50.86;101607.74;105550;1261;73931;-52
2023/05/03 06:54:05;;;;;;;31.90;3.70;;;;;;;16.94;50.15;101528.87;105662;1258;62561;-51
2023/05/03 06:56:33;;;;;;;22.70;2.90;;;;;;;16.98;49.51;101490.40;105600;1254;62477;-52
2023/05/03 06:59:02;;;;;;;6.60;2.80;;;;;;;16.96;48.93;101441.98;105666;1260;74857;-52
2023/05/03 07:01:32;;;;;;;5.70;2.90;;;;;;;16.95;50.33;101595.59;105583;1259;66233;-52
2023/05/03 07:04:00;;;;;;;4.80;2.80;;;;;;;17.03;50.14;101587.05;105587;1257;74181;-53
2023/05/03 07:06:27;;;;;;;11.40;3.90;;;;;;;17.24;50.94;101667.56;105616;1255;61934;-54
2023/05/03 07:08:54;;;;;;;25.10;3.50;;;;;;;17.48;50.07;101560.99;105241;1260;61479;-53
2023/05/03 07:11:24;;;;;;;14.10;2.90;;;;;;;17.62;49.37;101486.56;105615;1260;76328;-53
2023/05/03 07:13:53;;;;;;;47.60;3.70;;;;;;;17.78;48.72;101424.47;105629;1260;66014;-53
2023/05/03 07:16:20;;;;;;;14.90;3.30;;;;;;;17.97;48.31;101396.25;105627;1259;74953;-52
2023/05/03 07:18:47;;;;;;;12.20;2.50;;;;;;;18.09;47.46;101306.27;105651;1259;61893;-53
2023/05/03 07:21:14;;;;;;;42.80;3.40;;;;;;;18.20;46.76;101233.38;105687;1254;63014;-52
2023/05/03 07:23:43;;;;;;;14.40;2.90;;;;;;;18.16;47.57;101335.34;105591;1260;75010;-52
2023/05/03 07:26:10;;;;;;;15.70;3.10;;;;;;;18.24;46.87;101274.96;105652;1254;65682;-52
2023/05/03 07:28:37;;;;;;;39.10;3.60;;;;;;;18.50;47.28;101335.34;105604;1260;75184;-52
2023/05/03 07:31:04;;;;;;;9.10;2.60;;;;;;;18.70;46.45;101236.33;105610;1254;62362;-52
2023/05/03 07:33:33;;;;;;;21.50;3.30;;;;;;;18.80;45.86;101184.02;105626;1254;61824;-51
2023/05/03 07:36:01;;;;;;;18.40;3.00;;;;;;;18.90;44.76;101052.98;105653;1254;76323;-52
2023/05/03 07:38:28;;;;;;;16.60;2.60;;;;;;;19.11;44.92;101076.92;105591;1260;67114;-53
2023/05/03 07:40:55;;;;;;;59.60;4.50;;;;;;;19.30;45.12;101132.43;105658;1257;75600;-52
2023/05/03 07:43:22;;;;;;;19.50;2.70;;;;;;;19.47;44.64;101083.55;105610;1257;63192;-54
2023/05/03 07:45:50;;;;;;;45.00;3.00;;;;;;;19.54;45.20;101160.22;105624;1260;62668;-53
2023/05/03 07:48:17;;;;;;;11.70;2.20;;;;;;;19.70;44.14;101034.15;105620;1260;75223;-53
2023/05/03 07:50:44;;;;;;;31.70;3.40;;;;;;;19.86;43.32;100946.56;105620;1259;65106;-53
2023/05/03 07:53:11;;;;;;;26.00;3.30;;;;;;;19.88;42.36;100821.46;105590;1259;75042;-54
2023/05/03 07:55:38;;;;;;;9.40;2.50;;;;;;;19.79;42.41;100845.55;105621;1256;61474;-53
2023/05/03 07:58:06;;;;;;;10.30;1.80;;;;;;;19.70;42.27;100865.06;105624;1254;62766;-53
2023/05/03 08:00:33;;;;;;;6.20;1.60;;;;;;;19.58;42.05;100852.01;105609;1254;75472;-53
2023/05/03 08:03:02;;;;;;;4.60;1.50;;;;;;;19.49;41.44;100782.06;105616;1255;67164;-53
2023/05/03 08:05:30;;;;;;;5.50;2.00;;;;;;;19.56;40.82;100707.88;105648;1257;74418;-53
2023/05/03 08:07:57;;;;;;;9.60;1.90;;;;;;;19.64;40.47;100678.61;105642;1258;62056;-53
2023/05/03 08:10:24;;;;;;;6.30;1.60;;;;;;;19.72;41.88;100846.39;105604;1259;63285;-53
2023/05/03 08:12:51;;;;;;;16.10;1.90;;;;;;;19.97;42.00;100899.11;105602;1260;74296;-53
2023/05/03 08:15:18;;;;;;;2.60;1.40;;;;;;;20.04;40.30;100655.14;105627;1254;66674;-53
2023/05/03 08:17:45;;;;;;;8.50;2.20;;;;;;;19.90;40.37;100682.83;105585;1257;75595;-52
2023/05/03 08:20:12;;;;;;;6.80;1.80;;;;;;;20.07;40.17;100657.07;105582;1259;61944;-52
2023/05/03 08:22:40;;;;;;;6.80;1.60;;;;;;;20.30;39.36;100569.77;105597;1259;62105;-52
2023/05/03 08:25:08;;;;;;;3.50;1.60;;;;;;;20.47;39.58;100562.50;105682;1261;75622;-53
2023/05/03 08:27:36;;;;;;;9.20;2.50;;;;;;;20.71;39.20;100522.20;105628;1260;66602;-52
2023/05/03 08:30:04;;;;;;;16.40;3.00;;;;;;;20.83;38.99;100496.26;105522;1258;74106;-52
2023/05/03 08:32:31;;;;;;;7.40;2.80;;;;;;;20.94;36.63;100172.14;105610;1259;62100;-53
2023/05/03 08:34:58;;;;;;;18.20;2.40;;;;;;;20.97;36.73;100173.20;105610;1260;61454;-53
2023/05/03 08:37:25;;;;;;;7.00;2.60;;;;;;;21.00;36.19;100124.44;105651;1260;76484;-52
2023/05/03 08:39:52;;;;;;;8.20;2.90;;;;;;;20.92;36.98;100206.67;105620;1254;65715;-51
2023/05/03 08:42:19;;;;;;;13.90;2.80;;;;;;;20.82;36.97;100215.05;105622;1259;75164;-51
2023/05/03 08:44:47;;;;;;;16.30;2.70;;;;;;;20.89;37.98;100366.95;105618;1260;62853;-52
2023/05/03 08:47:15;;;;;;;9.50;2.50;;;;;;;21.10;37.21;100307.40;105598;1258;61706;-52
2023/05/03 08:49:43;;;;;;;19.50;2.60;;;;;;;21.02;36.77;100251.85;105659;1254;76213;-52
2023/05/03 08:52:10;;;;;;;20.00;3.00;;;;;;;20.99;36.99;100266.07;105675;1260;66886;-52
2023/05/03 08:54:37;;;;;;;8.60;2.60;;;;;;;21.00;37.25;100313.52;105615;1260;75030;-52
2023/05/03 08:57:09;;;;;;;22.50;2.80;;;;;;;21.04;37.28;100352.55;105586;1254;62740;-53
2023/05/03 08:59:49;;;;;;;10.00;2.50;;;;;;;21.11;36.30;100191.42;105639;1261;61635;-52
2023/05/03 09:02:16;;;;;;;42.60;3.50;;;;;;;21.14;36.39;100242.77;105692;1256;76155;-55
2023/05/03 09:04:44;;;;;;;18.10;4.20;;;;;;;21.28;36.43;100235.86;105664;1260;66401;-52
2023/05/03 09:07:11;;;;;;;13.20;3.50;;;;;;;21.42;35.16;100060.74;105602;1254;75215;-52
2023/05/03 09:09:39;;;;;;;6.60;2.50;;;;;;;21.31;34.90;100042.33;105602;1256;62877;-54
2023/05/03 09:12:06;;;;;;;8.20;2.10;;;;;;;21.20;35.27;100066.09;105641;1254;62651;-53
2023/05/03 09:14:46;;;;;;;6.20;2.10;;;;;;;21.15;34.87;100036.05;105603;1260;76025;-52
2023/05/03 09:17:15;;;;;;;4.80;2.10;;;;;;;21.13;36.46;100225.48;105663;1254;66979;-53
2023/05/03 09:19:55;;;;;;;6.10;2.10;;;;;;;21.34;35.07;100089.34;105689;1254;75097;-55
2023/05/03 09:22:30;;;;;;;9.20;2.20;;;;;;;21.17;36.11;100160.30;105630;1254;62516;-54
2023/05/03 09:24:58;;;;;;;18.60;3.40;;;;;;;21.15;36.09;100212.04;105504;1255;63256;-59
2023/05/03 09:27:26;;;;;;;3.80;1.90;;;;;;;21.47;36.28;100273.73;105658;1259;76345;-54
2023/05/03 09:29:53;;;;;;;10.80;2.10;;;;;;;21.74;34.59;100029.14;105620;1260;67265;-53
2023/05/03 09:32:21;;;;;;;13.80;4.00;;;;;;;21.74;34.80;100037.79;105630;1257;74139;-52
2023/05/03 09:34:48;;;;;;;15.00;2.40;;;;;;;21.78;35.58;100131.08;105611;1259;63229;-53
2023/05/03 09:37:15;;;;;;;24.70;2.10;;;;;;;21.92;35.18;100113.91;105616;1254;62277;-53
2023/05/03 09:39:44;;;;;;;57.60;3.80;;;;;;;22.00;34.42;99993.95;105613;1254;75213;-52
2023/05/03 09:42:18;;;;;;;6.70;1.90;;;;;;;21.99;35.65;100149.42;105615;1259;67105;-52
2023/05/03 09:44:47;;;;;;;22.40;2.40;;;;;;;22.10;34.48;100011.98;105615;1254;74299;-52
2023/05/03 09:47:15;;;;;;;6.90;1.10;;;;;;;22.03;35.09;100070.80;105755;1259;61769;-52
2023/05/03 09:49:42;;;;;;;17.70;2.20;;;;;;;21.89;33.77;99955.04;105638;1254;61119;-52
2023/05/03 09:52:09;;;;;;;10.00;1.20;;;;;;;21.79;34.11;99954.20;105554;1254;75303;-52
2023/05/03 09:54:37;;;;;;;27.50;1.90;;;;;;;21.69;35.12;100084.46;105678;1257;66200;-52
2023/05/03 09:57:06;;;;;;;9.40;1.20;;;;;;;21.76;34.32;100012.18;105618;1254;75174;-52
2023/05/03 09:59:34;;;;;;;9.90;1.40;;;;;;;21.87;34.62;100035.13;105635;1260;62700;-52
2023/05/03 10:02:02;;;;;;;10.10;1.40;;;;;;;21.89;33.63;99928.50;105634;1260;61685;-54
2023/05/03 10:04:50;;;;;;;19.20;1.60;;;;;;;21.88;33.89;99918.78;105492;1259;75577;-53
2023/05/03 10:07:17;;;;;;;9.00;1.30;;;;;;;21.95;32.97;99835.55;105532;1254;66815;-54
2023/05/03 10:09:48;;;;;;;9.20;1.40;;;;;;;21.78;33.56;99880.87;105627;1254;75542;-54
2023/05/03 10:12:16;;;;;;;6.10;1.00;;;;;;;21.56;34.67;100008.80;105579;1259;62849;-52
2023/05/03 10:14:45;;;;;;;15.10;1.50;;;;;;;21.52;34.87;100038.20;105607;1260;61856;-52
2023/05/03 10:17:32;;;;;;;22.20;1.70;;;;;;;21.50;34.44;100036.42;105637;1255;75812;-51
2023/05/03 10:20:19;;;;;;;10.80;1.60;;;;;;;21.72;33.22;99914.47;105577;1259;66928;-52
2023/05/03 10:23:12;;;;;;;47.30;2.80;;;;;;;21.88;32.97;99830.98;105603;1260;75173;-51
2023/05/03 10:26:12;;;;;;;16.70;1.40;;;;;;;21.80;33.66;99884.57;105602;1256;61852;-50
2023/05/03 10:28:40;;;;;;;27.60;2.70;;;;;;;21.70;33.27;99822.64;105671;1259;61699;-51
2023/05/03 10:31:43;;;;;;;7.10;1.30;;;;;;;21.61;33.99;99926.15;105686;1255;75398;-52
2023/05/03 10:34:24;;;;;;;7.70;1.70;;;;;;;21.64;33.28;99872.54;105634;1256;67087;-53
2023/05/03 10:36:52;;;;;;;3.10;1.10;;;;;;;21.66;34.30;99978.98;105633;1255;75093;-52
2023/05/03 10:39:20;;;;;;;5.80;1.10;;;;;;;21.76;33.74;99904.73;105616;1257;61041;-53
2023/05/03 10:42:06;;;;;;;15.30;1.20;;;;;;;21.68;33.73;99917.95;105639;1259;62194;-52
2023/05/03 10:44:37;;;;;;;30.40;1.90;;;;;;;21.83;34.67;100024.13;105626;1259;75384;-53
2023/05/03 10:47:18;;;;;;;15.50;1.70;;;;;;;21.97;33.02;99878.78;105671;1259;66073;-53
2023/05/03 10:49:45;;;;;;;4.00;1.20;;;;;;;21.86;32.22;99718.35;105619;1261;74816;-51
2023/05/03 10:52:34;;;;;;;6.00;1.10;;;;;;;21.63;32.02;99690.09;105621;1259;61554;-52
2023/05/03 10:55:01;;;;;;;17.40;0.90;;;;;;;21.53;32.63;99758.73;105665;1259;62343;-53
2023/05/03 10:57:31;;;;;;;3.50;1.00;;;;;;;21.60;32.64;99747.52;105592;1254;75357;-52
2023/05/03 10:59:58;;;;;;;12.10;1.90;;;;;;;21.52;32.72;99760.19;105637;1255;66806;-54
2023/05/03 11:02:28;;;;;;;54.60;3.10;;;;;;;21.65;33.39;99833.74;105340;1259;377905;-52
2023/05/03 11:06:07;;;;;;;29.60;2.70;;;;;;;22.16;32.93;99793.51;102938;1289;600894;-52
2023/05/03 11:08:37;;;;;;;26.40;5.50;;;;;;;22.35;32.66;99722.46;105107;1270;61831;-53
2023/05/03 11:11:08;;;;;;;8.20;1.20;;;;;;;22.22;33.49;99813.98;105055;1269;62000;-52
2023/05/03 11:13:36;;;;;;;25.90;2.20;;;;;;;22.03;33.83;99870.22;105078;1263;73613;-53
2023/05/03 11:16:04;;;;;;;13.70;2.20;;;;;;;21.90;34.83;100007.13;105087;1264;66600;-53
2023/05/03 11:18:32;;;;;;;42.90;4.10;;;;;;;22.06;34.61;100017.70;105711;1254;75261;-53
2023/05/03 11:21:00;;;;;;;35.50;2.00;;;;;;;22.49;33.92;99943.78;105791;1251;60561;-53
2023/05/03 11:23:27;;;;;;;8.20;1.30;;;;;;;22.81;34.79;100030.44;105998;1256;63061;-53
2023/05/03 11:25:56;;;;;;;6.90;1.70;;;;;;;23.07;34.02;99976.90;105999;1250;73707;-53